Floral, Canada
Current Conditions -  °F | °C
As of 7:00 PM on Monday 24 Nov 2014 (Local Time) from CYXE Reporting Station
Overcast Overcast  
Wind Chill: 12°   Ceiling: 1100
Heat Index: 21°   Visibility: 15mi
Dew Point: 18°   Wind: 8mph
Humidity: 86%   Direction: 280°W
Pressure: 29.98"   Gusts: NA
Location:  52.07°N, 106.47°W
Report Text: CYXE 250100Z 28007KT 15SM OVC011 M06/M08 A2998 RMK SC8 PRESRR SLP191
Loading
Personal Weather Stations






























Interactive Weather Map New forecast layout! Learn more

10-Day Weather Forecast

Advertisements
Track Severe Weather on mobile